Impacts TAF Board
For situational awareness. Not to be used for flight planning purposes.
IDs:

KCSG - Columbus Arpt, GA, US

Issued at 0539 UTC 24 Jan 2019
Updated at 0732 UTC 24 Jan 2019
Potential Impact None Slight Moderate High
Time<<24/20Z 24/21Z 24/22Z 24/23Z 25/00Z 25/01Z 25/02Z 25/03Z 25/04Z 25/05Z 25/06Z 25/07Z 25/08Z>>
Type PRVL PRVL PRVL PRVL PRVL PRVL PRVL PRVL PRVL PRVL
VIS >6 >6 >6 >6 >6 >6 >6 >6 >6 >6
CIG -- -- -- -- -- -- -- -- -- --
Cover FEW FEW FEW FEW FEW FEW FEW FEW FEW FEW
FltCat VFR VFR VFR VFR VFR VFR VFR VFR VFR VFR
WX -- -- -- -- -- -- -- -- -- --
WDir 310 310 310 310 300 300 300 300 300 300
WSpd 10 10 10 10 8 8 8 8 8 8
WGst 18 18 18 18 -- -- -- -- -- --
Raw TAF
KCSG 240539Z 2406/2506 32010KT 6SM -RA BR BKN012 OVC040
  FM240800 32010G20KT P6SM VCSH SCT012 BKN020
  FM241100 29012G22KT P6SM BKN025
  FM241600 31010G20KT P6SM BKN035
  FM242000 31010G18KT P6SM FEW250
  FM250000 30008KT P6SM FEW250


METAR Board
Radar Display
Forecast Discussion
For situational awareness. Not to be used for flight planning purposes.